createdAt,value
2022-09-17T18:02:16.112Z,24.69
2022-09-17T18:02:26.181Z,24.71
2022-09-17T18:02:36.254Z,24.73
2022-09-17T18:02:46.438Z,24.69
2022-09-17T18:02:56.346Z,24.71
2022-09-17T18:03:06.467Z,24.69
2022-09-17T18:03:16.425Z,24.68
2022-09-17T18:03:26.452Z,24.68
2022-09-17T18:03:36.486Z,24.64
2022-09-17T18:03:46.495Z,24.63
2022-09-17T18:03:56.510Z,24.60
2022-09-17T18:04:06.542Z,24.59
2022-09-17T18:04:16.586Z,24.59
2022-09-17T18:04:26.699Z,24.56
2022-09-17T18:04:36.784Z,24.56
2022-09-17T18:04:46.807Z,24.53
2022-09-17T18:04:59.719Z,24.53
2022-09-17T18:05:06.974Z,24.49
2022-09-17T18:05:17.017Z,24.47
2022-09-17T18:05:27.072Z,24.50
2022-09-17T18:05:37.090Z,24.45
2022-09-17T18:05:47.103Z,24.45
2022-09-17T18:05:57.126Z,24.44
2022-09-17T18:06:07.137Z,24.39
2022-09-17T18:06:17.238Z,24.39
2022-09-17T18:06:27.310Z,24.39
2022-09-17T18:06:37.418Z,24.37
2022-09-17T18:06:47.488Z,24.35
2022-09-17T18:06:57.581Z,24.35
2022-09-17T18:07:07.621Z,24.32
2022-09-17T18:07:17.667Z,24.34
2022-09-17T18:07:27.677Z,24.32
2022-09-17T18:07:38.277Z,24.34
2022-09-17T18:07:47.717Z,24.29
2022-09-17T18:07:57.826Z,24.27
2022-09-17T18:08:07.785Z,24.29
2022-09-17T18:08:17.907Z,24.29
2022-09-17T18:08:27.945Z,24.29
2022-09-17T18:08:37.969Z,24.26
2022-09-17T18:08:47.989Z,24.24
2022-09-17T18:08:58.010Z,24.23
2022-09-17T18:09:08.048Z,24.26
2022-09-17T18:09:18.062Z,24.23
2022-09-17T18:09:28.066Z,24.22
2022-09-17T18:09:38.136Z,24.22
2022-09-17T18:09:48.167Z,24.22
2022-09-17T18:09:58.220Z,24.20
2022-09-17T18:10:08.257Z,24.19
2022-09-17T18:10:18.279Z,24.20
2022-09-17T18:10:28.308Z,24.19
2022-09-17T18:10:38.385Z,24.19
2022-09-17T18:10:48.408Z,24.19
2022-09-17T18:10:58.446Z,24.17
2022-09-17T18:11:08.455Z,24.19
2022-09-17T18:11:18.479Z,24.19
2022-09-17T18:11:28.498Z,24.19
2022-09-17T18:11:38.520Z,24.17
2022-09-17T18:11:48.537Z,24.17
2022-09-17T18:11:58.549Z,24.17
2022-09-17T18:12:08.583Z,24.20
2022-09-17T18:12:18.598Z,24.17
2022-09-17T18:12:28.624Z,24.16
2022-09-17T18:12:38.632Z,24.20
2022-09-17T18:12:48.700Z,24.19
2022-09-17T18:12:58.729Z,24.17
2022-09-17T18:13:08.767Z,24.17
2022-09-17T18:13:18.787Z,24.17
2022-09-17T18:13:28.808Z,24.17
2022-09-17T18:13:38.830Z,24.17
2022-09-17T18:13:48.920Z,24.17
2022-09-17T18:13:58.979Z,24.19
2022-09-17T18:14:09.070Z,24.19
2022-09-17T18:14:19.099Z,24.19
2022-09-17T18:14:29.160Z,24.17
2022-09-17T18:14:39.190Z,24.17
2022-09-17T18:14:49.206Z,24.16
2022-09-17T18:14:59.210Z,24.17
2022-09-17T18:15:09.240Z,24.17
2022-09-17T18:15:19.268Z,24.17
2022-09-17T18:15:29.321Z,24.16
2022-09-17T18:15:39.355Z,24.17
2022-09-17T18:15:49.504Z,24.17
2022-09-17T18:15:59.464Z,24.19
2022-09-17T18:16:09.592Z,24.19
2022-09-17T18:16:19.743Z,24.16
2022-09-17T18:16:29.675Z,24.20
2022-09-17T18:16:39.748Z,24.19
2022-09-17T18:16:49.831Z,24.22
2022-09-17T18:16:59.840Z,24.19
2022-09-17T18:17:09.878Z,24.19
2022-09-17T18:17:19.899Z,24.19
2022-09-17T18:17:29.937Z,24.22
2022-09-17T18:17:39.948Z,24.19
2022-09-17T18:17:49.990Z,24.20
2022-09-17T18:18:00.051Z,24.20
2022-09-17T18:18:10.076Z,24.20
2022-09-17T18:18:20.090Z,24.22
2022-09-17T18:18:30.104Z,24.22
2022-09-17T18:18:44.359Z,24.22
2022-09-17T18:18:50.250Z,24.23
2022-09-17T18:19:00.371Z,24.22
2022-09-17T18:19:10.930Z,24.22
2022-09-17T18:19:20.379Z,24.23
2022-09-17T18:19:30.389Z,24.26
2022-09-17T18:19:40.412Z,24.23
2022-09-17T18:19:50.444Z,24.24
2022-09-17T18:20:00.458Z,24.23
2022-09-17T18:20:10.481Z,24.26
2022-09-17T18:20:20.511Z,24.23
2022-09-17T18:20:30.527Z,24.24
2022-09-17T18:20:40.542Z,24.23
2022-09-17T18:20:50.550Z,24.23
2022-09-17T18:21:00.582Z,24.23
2022-09-17T18:21:10.620Z,24.24
2022-09-17T18:21:20.669Z,24.23
2022-09-17T18:21:30.680Z,24.23
2022-09-17T18:21:40.704Z,24.22
2022-09-17T18:21:50.729Z,24.22
2022-09-17T18:22:00.772Z,24.20
2022-09-17T18:22:10.870Z,24.23
2022-09-17T18:22:20.891Z,24.22
2022-09-17T18:22:30.914Z,24.23
2022-09-17T18:22:40.947Z,24.23
2022-09-17T18:22:50.977Z,24.24
2022-09-17T18:23:01.001Z,24.22
2022-09-17T18:23:11.010Z,24.23
2022-09-17T18:23:21.032Z,24.22
2022-09-17T18:23:31.065Z,24.20
2022-09-17T18:23:41.091Z,24.20
2022-09-17T18:23:51.113Z,24.22
2022-09-17T18:24:01.130Z,24.17
2022-09-17T18:24:11.160Z,24.19
2022-09-17T18:24:21.258Z,24.17
2022-09-17T18:24:31.281Z,24.17
2022-09-17T18:24:41.317Z,24.14
2022-09-17T18:24:51.319Z,24.17
2022-09-17T18:25:01.348Z,24.17
2022-09-17T18:25:11.442Z,24.16
2022-09-17T18:25:21.478Z,24.14
2022-09-17T18:25:31.503Z,24.16
2022-09-17T18:25:41.521Z,24.17
2022-09-17T18:25:51.531Z,24.13
2022-09-17T18:26:01.554Z,24.14
2022-09-17T18:26:21.609Z,24.16
2022-09-17T18:26:31.641Z,24.16
2022-09-17T18:26:41.660Z,24.17
2022-09-17T18:26:51.688Z,24.14
2022-09-17T18:27:01.710Z,24.14
2022-09-17T18:27:21.751Z,24.14
2022-09-17T18:27:31.789Z,24.14
2022-09-17T18:27:41.810Z,24.16
2022-09-17T18:27:51.820Z,24.14
2022-09-17T18:28:01.853Z,24.16
2022-09-17T18:28:22.040Z,24.14
2022-09-17T18:28:32.069Z,24.16
2022-09-17T18:28:42.152Z,24.13
2022-09-17T18:28:52.180Z,24.16
2022-09-17T18:29:07.042Z,24.14
2022-09-17T18:29:12.315Z,24.13
2022-09-17T18:29:22.368Z,24.16
2022-09-17T18:29:32.381Z,24.14
2022-09-17T18:29:42.411Z,24.14
2022-09-17T18:29:52.441Z,24.14
2022-09-17T18:30:02.467Z,24.13
2022-09-17T18:30:12.491Z,24.16
2022-09-17T18:30:22.505Z,24.14
2022-09-17T18:30:32.570Z,24.14
2022-09-17T18:30:42.592Z,24.14
2022-09-17T18:30:52.632Z,24.16
2022-09-17T18:31:02.687Z,24.16
2022-09-17T18:31:12.822Z,24.14
2022-09-17T18:31:22.998Z,24.16
2022-09-17T18:31:32.990Z,24.14
2022-09-17T18:31:43.104Z,24.13
2022-09-17T18:31:53.225Z,24.13
2022-09-17T18:32:03.273Z,24.13
2022-09-17T18:32:13.303Z,24.13
2022-09-17T18:32:23.320Z,24.13
2022-09-17T18:32:33.344Z,24.14
2022-09-17T18:32:43.408Z,24.13
2022-09-17T18:32:53.421Z,24.13
2022-09-17T18:33:03.461Z,24.14
2022-09-17T18:33:13.492Z,24.13
2022-09-17T18:33:23.534Z,24.16
2022-09-17T18:33:33.553Z,24.14
2022-09-17T18:33:43.577Z,24.12
2022-09-17T18:33:53.590Z,24.13
2022-09-17T18:34:03.613Z,24.14
2022-09-17T18:34:13.642Z,24.17
2022-09-17T18:34:23.663Z,24.16
2022-09-17T18:34:33.709Z,24.14
2022-09-17T18:34:43.725Z,24.14
2022-09-17T18:34:53.754Z,24.14
2022-09-17T18:35:03.782Z,24.16
2022-09-17T18:35:13.811Z,24.14
2022-09-17T18:35:23.841Z,24.17
2022-09-17T18:35:33.872Z,24.14
2022-09-17T18:35:43.885Z,24.13
2022-09-17T18:35:53.906Z,24.14
2022-09-17T18:36:03.925Z,24.14
2022-09-17T18:36:13.943Z,24.14
2022-09-17T18:36:23.978Z,24.12
2022-09-17T18:36:34.097Z,24.10
2022-09-17T18:36:48.724Z,24.13
2022-09-17T18:36:54.253Z,24.10
2022-09-17T18:37:04.297Z,24.12
2022-09-17T18:37:14.343Z,24.10
2022-09-17T18:37:24.363Z,24.08
2022-09-17T18:37:34.553Z,24.05
2022-09-17T18:37:44.462Z,24.04
2022-09-17T18:37:54.474Z,24.04
2022-09-17T18:38:04.493Z,24.02
2022-09-17T18:38:14.526Z,24.01
2022-09-17T18:38:24.545Z,24.02
2022-09-17T18:38:34.567Z,24.00
2022-09-17T18:38:44.626Z,23.95
2022-09-17T18:38:54.654Z,23.89
2022-09-17T18:39:32.896Z,23.85
2022-09-17T18:39:58.082Z,23.70
2022-09-17T18:39:59.572Z,23.70
2022-09-17T18:40:05.475Z,23.65
2022-09-17T18:40:15.449Z,23.57
2022-09-17T18:40:25.561Z,23.46
2022-09-17T18:40:35.745Z,23.42
2022-09-17T18:40:45.694Z,23.38
2022-09-17T18:40:55.757Z,23.38
2022-09-17T18:41:05.774Z,23.32
2022-09-17T18:41:15.795Z,23.29
2022-09-17T18:41:25.817Z,23.24
2022-09-17T18:41:35.855Z,23.27
2022-09-17T18:41:45.883Z,23.24
2022-09-17T18:41:55.896Z,23.26
2022-09-17T18:42:05.922Z,23.24
2022-09-17T18:42:15.949Z,23.23
2022-09-17T18:42:25.994Z,23.24
2022-09-17T18:42:36.016Z,23.26
2022-09-17T18:42:46.096Z,23.27
2022-09-17T18:42:56.124Z,23.27
2022-09-17T18:43:06.145Z,23.29
2022-09-17T18:43:16.175Z,23.29
2022-09-17T18:43:26.264Z,23.29
2022-09-17T18:43:36.361Z,23.29
2022-09-17T18:43:46.356Z,23.32
2022-09-17T18:43:56.418Z,23.34
2022-09-17T18:44:06.433Z,23.35
2022-09-17T18:44:16.451Z,23.35
2022-09-17T18:44:26.486Z,23.38
2022-09-17T18:44:36.514Z,23.38
2022-09-17T18:44:46.536Z,23.40
2022-09-17T18:44:56.553Z,23.40
2022-09-17T18:45:06.586Z,23.43
2022-09-17T18:45:16.617Z,23.43
2022-09-17T18:45:26.642Z,23.45
2022-09-17T18:45:36.675Z,23.45
2022-09-17T18:45:46.697Z,23.46
2022-09-17T18:45:56.743Z,23.49
2022-09-17T18:46:06.781Z,23.49
2022-09-17T18:46:16.918Z,23.52
2022-09-17T18:46:27.045Z,23.52
2022-09-17T18:46:37.134Z,23.50
2022-09-17T18:46:47.133Z,23.50
2022-09-17T18:46:57.283Z,23.52
2022-09-17T18:47:07.245Z,23.50
2022-09-17T18:47:17.267Z,23.53
2022-09-17T18:47:27.283Z,23.55
2022-09-17T18:47:37.306Z,23.57
2022-09-17T18:47:47.327Z,23.57
2022-09-17T18:47:57.348Z,23.58
2022-09-17T18:48:07.446Z,23.58
2022-09-17T18:48:17.476Z,23.58
2022-09-17T18:48:27.496Z,23.61
2022-09-17T18:48:37.517Z,23.61
2022-09-17T18:48:47.547Z,23.62
2022-09-17T18:48:57.567Z,23.62
2022-09-17T18:49:07.601Z,23.64
2022-09-17T18:49:17.626Z,23.62
2022-09-17T18:49:27.663Z,23.61
2022-09-17T18:49:37.687Z,23.65
2022-09-17T18:49:47.732Z,23.65
2022-09-17T18:49:57.766Z,23.65
2022-09-17T18:50:07.784Z,23.64
2022-09-17T18:50:17.808Z,23.64
2022-09-17T18:50:27.835Z,23.65
2022-09-17T18:50:37.895Z,23.67
2022-09-17T18:50:47.969Z,23.64
2022-09-17T18:50:57.997Z,23.67
2022-09-17T18:51:08.017Z,23.68
2022-09-17T18:51:18.060Z,23.70
2022-09-17T18:51:28.077Z,23.67
2022-09-17T18:51:38.102Z,23.67
2022-09-17T18:51:48.129Z,23.67
2022-09-17T18:51:58.247Z,23.68
2022-09-17T18:52:08.276Z,23.68
2022-09-17T18:52:28.446Z,23.68
2022-09-17T18:52:38.468Z,23.70
2022-09-17T18:52:48.489Z,23.71
2022-09-17T18:52:58.525Z,23.72
2022-09-17T18:53:08.540Z,23.72
2022-09-17T18:53:18.558Z,23.72
2022-09-17T18:53:28.577Z,23.76
2022-09-17T18:53:38.597Z,23.76
2022-09-17T18:53:51.604Z,23.76
2022-09-17T18:53:58.680Z,23.77
2022-09-17T18:54:08.717Z,23.79
2022-09-17T18:54:18.736Z,23.80
2022-09-17T18:54:28.759Z,23.80
2022-09-17T18:54:38.801Z,23.82
2022-09-17T18:54:48.817Z,23.82
2022-09-17T18:54:58.837Z,23.83
2022-09-17T18:55:08.856Z,23.83
2022-09-17T18:55:18.867Z,23.85
2022-09-17T18:55:28.904Z,23.85
2022-09-17T18:55:38.928Z,23.87
2022-09-17T18:55:48.956Z,23.89
2022-09-17T18:55:58.971Z,23.90
2022-09-17T18:56:08.989Z,23.90
2022-09-17T18:56:19.009Z,23.90
2022-09-17T18:56:29.037Z,23.94
2022-09-17T18:56:39.086Z,23.94
2022-09-17T18:56:49.108Z,23.92
2022-09-17T18:56:59.118Z,23.94
2022-09-17T18:57:09.138Z,23.95
2022-09-17T18:57:19.163Z,23.94
2022-09-17T18:57:29.179Z,23.98
2022-09-17T18:57:39.197Z,23.97
2022-09-17T18:57:49.265Z,23.95
2022-09-17T18:57:59.278Z,23.98
2022-09-17T18:58:09.299Z,23.98
2022-09-17T18:58:19.311Z,24.00
2022-09-17T18:58:29.338Z,24.00
2022-09-17T18:58:39.358Z,24.02
2022-09-17T18:58:49.398Z,24.01
2022-09-17T18:59:00.787Z,24.01
2022-09-17T18:59:09.440Z,24.01
2022-09-17T18:59:19.453Z,24.01
2022-09-17T18:59:29.491Z,24.04
2022-09-17T18:59:39.509Z,24.02
2022-09-17T18:59:49.568Z,24.02
2022-09-17T18:59:59.591Z,24.04
2022-09-17T19:00:09.620Z,24.01
2022-09-17T19:00:19.643Z,24.05
2022-09-17T19:00:29.736Z,24.02
2022-09-17T19:00:39.897Z,24.04
2022-09-17T19:00:49.822Z,24.04
2022-09-17T19:00:59.896Z,24.07
2022-09-17T19:01:10.009Z,24.05
2022-09-17T19:01:20.147Z,24.07
2022-09-17T19:01:30.127Z,24.04
2022-09-17T19:01:40.227Z,24.05
2022-09-17T19:01:50.326Z,24.05
2022-09-17T19:02:00.542Z,24.04
2022-09-17T19:02:10.499Z,24.05
2022-09-17T19:02:20.548Z,24.05
2022-09-17T19:02:30.570Z,24.02
2022-09-17T19:02:40.604Z,24.05
2022-09-17T19:02:50.626Z,24.04
2022-09-17T19:03:00.750Z,23.95
2022-09-17T19:03:20.786Z,23.85
2022-09-17T19:03:30.813Z,23.80
2022-09-17T19:03:40.839Z,23.77
2022-09-17T19:03:50.861Z,23.77
2022-09-17T19:04:00.986Z,23.75
2022-09-17T19:04:21.098Z,23.72
2022-09-17T19:04:31.111Z,23.70
2022-09-17T19:04:41.144Z,23.70
2022-09-17T19:04:51.159Z,23.67
2022-09-17T19:05:01.179Z,23.65
2022-09-17T19:05:21.331Z,23.64
2022-09-17T19:05:31.359Z,23.64
2022-09-17T19:05:41.381Z,23.62
2022-09-17T19:05:51.412Z,23.64
2022-09-17T19:06:01.450Z,23.64
2022-09-17T19:06:21.514Z,23.64
2022-09-17T19:06:31.522Z,23.64
2022-09-17T19:06:41.549Z,23.65
2022-09-17T19:06:51.573Z,23.67
2022-09-17T19:07:01.609Z,23.64
2022-09-17T19:07:21.802Z,23.67
2022-09-17T19:07:31.829Z,23.65
2022-09-17T19:07:41.929Z,23.65
2022-09-17T19:07:53.856Z,23.68
2022-09-17T19:08:02.048Z,23.65
2022-09-17T19:08:22.211Z,23.62
2022-09-17T19:08:32.239Z,23.62
2022-09-17T19:08:42.269Z,23.65
2022-09-17T19:08:52.300Z,23.65
2022-09-17T19:09:02.321Z,23.64
2022-09-17T19:09:12.431Z,23.65
2022-09-17T19:09:22.477Z,23.65
2022-09-17T19:09:32.483Z,23.67
2022-09-17T19:09:42.502Z,23.67
2022-09-17T19:09:52.572Z,23.68
2022-09-17T19:10:02.596Z,23.70
2022-09-17T19:10:12.631Z,23.68
2022-09-17T19:10:22.661Z,23.65
2022-09-17T19:10:32.721Z,23.64
2022-09-17T19:10:42.743Z,23.57
2022-09-17T19:10:52.762Z,23.50
2022-09-17T19:11:02.792Z,23.46
2022-09-17T19:11:12.846Z,23.46
2022-09-17T19:11:22.861Z,23.45
2022-09-17T19:11:32.926Z,23.40
2022-09-17T19:11:42.971Z,23.34
2022-09-17T19:11:53.010Z,23.29
2022-09-17T19:12:03.046Z,23.24
2022-09-17T19:12:13.073Z,23.19
2022-09-17T19:12:23.082Z,23.09
2022-09-17T19:12:33.200Z,23.07
2022-09-17T19:12:43.370Z,23.04
2022-09-17T19:12:53.283Z,23.01
2022-09-17T19:13:03.327Z,22.97
2022-09-17T19:13:13.353Z,22.97
2022-09-17T19:13:23.460Z,22.96
2022-09-17T19:13:33.486Z,22.94
2022-09-17T19:13:43.502Z,22.90
2022-09-17T19:13:53.523Z,22.87
2022-09-17T19:14:03.551Z,22.84
2022-09-17T19:14:13.581Z,22.84
2022-09-17T19:14:23.612Z,22.82
2022-09-17T19:14:33.724Z,22.78
2022-09-17T19:14:43.810Z,22.77
2022-09-17T19:14:53.834Z,22.69
2022-09-17T19:15:03.856Z,22.68
2022-09-17T19:15:13.902Z,22.64
2022-09-17T19:15:23.926Z,22.62
2022-09-17T19:15:34.079Z,22.59
2022-09-17T19:15:44.048Z,22.56
2022-09-17T19:15:54.154Z,22.53
2022-09-17T19:16:04.268Z,22.52
2022-09-17T19:16:14.400Z,22.49
2022-09-17T19:16:24.478Z,22.47
2022-09-17T19:16:34.564Z,22.46
2022-09-17T19:16:44.593Z,22.44
2022-09-17T19:16:54.624Z,22.43
2022-09-17T19:17:04.654Z,22.44
2022-09-17T19:17:14.724Z,22.41
2022-09-17T19:17:24.750Z,22.43
2022-09-17T19:17:34.787Z,22.39
2022-09-17T19:17:44.803Z,22.39
2022-09-17T19:17:54.833Z,22.38
2022-09-17T19:18:04.873Z,22.38
2022-09-17T19:18:14.941Z,22.35
2022-09-17T19:18:24.986Z,22.29
2022-09-17T19:18:35.013Z,22.23
2022-09-17T19:18:45.036Z,22.19
2022-09-17T19:18:55.054Z,22.16
2022-09-17T19:19:05.075Z,22.12
2022-09-17T19:19:15.084Z,22.10
2022-09-17T19:19:25.101Z,22.07
2022-09-17T19:19:35.124Z,22.06
2022-09-17T19:19:45.144Z,22.04
2022-09-17T19:19:55.204Z,22.02
2022-09-17T19:20:05.227Z,22.02
2022-09-17T19:20:15.243Z,22.02
2022-09-17T19:20:25.273Z,21.99
2022-09-17T19:20:35.291Z,22.01
2022-09-17T19:20:45.313Z,21.99
2022-09-17T19:20:55.344Z,21.99
2022-09-17T19:21:05.373Z,21.99
2022-09-17T19:21:15.394Z,22.02
2022-09-17T19:21:25.423Z,22.01
2022-09-17T19:21:35.454Z,22.01
2022-09-17T19:21:45.505Z,21.98
2022-09-17T19:21:55.527Z,21.99
2022-09-17T19:22:08.003Z,22.02
2022-09-17T19:22:15.691Z,21.99
2022-09-17T19:22:25.722Z,22.01
2022-09-17T19:22:35.745Z,22.02
2022-09-17T19:22:45.773Z,22.04
2022-09-17T19:22:55.914Z,22.02
2022-09-17T19:23:05.934Z,22.06
2022-09-17T19:23:15.971Z,22.07
2022-09-17T19:23:25.983Z,22.09
2022-09-17T19:23:36.032Z,22.10
2022-09-17T19:23:46.054Z,22.12
2022-09-17T19:23:56.084Z,22.16
2022-09-17T19:24:06.111Z,22.14
2022-09-17T19:24:26.306Z,22.19
2022-09-17T19:24:36.385Z,22.22
2022-09-17T19:24:46.406Z,22.23
2022-09-17T19:24:56.425Z,22.25
2022-09-17T19:25:06.463Z,22.27
2022-09-17T19:25:16.516Z,22.29
2022-09-17T19:25:26.554Z,22.29
2022-09-17T19:25:36.572Z,22.32
2022-09-17T19:25:46.593Z,22.35
2022-09-17T19:25:56.614Z,22.38
2022-09-17T19:26:06.635Z,22.38
2022-09-17T19:26:16.676Z,22.41
2022-09-17T19:26:26.736Z,22.43
2022-09-17T19:26:36.757Z,22.46
2022-09-17T19:26:50.775Z,22.47
2022-09-17T19:26:56.889Z,22.47
2022-09-17T19:27:06.906Z,22.47
2022-09-17T19:27:16.927Z,22.52
2022-09-17T19:27:26.955Z,22.53
2022-09-17T19:27:36.978Z,22.56
2022-09-17T19:27:47.006Z,22.56
2022-09-17T19:27:57.032Z,22.57
2022-09-17T19:28:07.047Z,22.60
2022-09-17T19:28:17.076Z,22.60
2022-09-17T19:28:27.107Z,22.64
2022-09-17T19:28:37.224Z,22.65
2022-09-17T19:28:47.258Z,22.65
2022-09-17T19:28:57.299Z,22.68
2022-09-17T19:29:07.408Z,22.68
2022-09-17T19:29:17.422Z,22.71
2022-09-17T19:29:27.436Z,22.69
2022-09-17T19:29:37.466Z,22.71
2022-09-17T19:29:47.503Z,22.69
2022-09-17T19:29:57.532Z,22.72
2022-09-17T19:30:07.545Z,22.72
2022-09-17T19:30:17.566Z,22.72
2022-09-17T19:30:27.585Z,22.72
2022-09-17T19:30:37.606Z,22.75
2022-09-17T19:30:47.753Z,22.72
2022-09-17T19:30:57.732Z,22.74
2022-09-17T19:31:07.882Z,22.74
2022-09-17T19:31:18.036Z,22.74
2022-09-17T19:31:28.062Z,22.72
2022-09-17T19:31:38.177Z,22.75
2022-09-17T19:31:48.194Z,22.77
2022-09-17T19:31:58.166Z,22.77
2022-09-17T19:32:08.193Z,22.78
2022-09-17T19:32:18.215Z,22.78
2022-09-17T19:32:28.246Z,22.80
2022-09-17T19:32:41.268Z,22.83
2022-09-17T19:32:48.366Z,22.83
2022-09-17T19:32:58.396Z,22.83
2022-09-17T19:33:08.450Z,22.83
2022-09-17T19:33:18.465Z,22.86
2022-09-17T19:33:28.507Z,22.86
2022-09-17T19:33:38.597Z,22.86
2022-09-17T19:33:48.657Z,22.90
2022-09-17T19:33:58.678Z,22.90
2022-09-17T19:34:08.708Z,22.92
2022-09-17T19:34:18.726Z,22.94
2022-09-17T19:34:28.746Z,22.94
2022-09-17T19:34:38.777Z,22.96
2022-09-17T19:34:48.796Z,22.97
2022-09-17T19:34:58.826Z,22.96
2022-09-17T19:35:08.849Z,22.99
2022-09-17T19:35:18.922Z,22.99
2022-09-17T19:35:29.012Z,22.99
2022-09-17T19:35:39.029Z,22.99
2022-09-17T19:35:49.048Z,23.02
2022-09-17T19:35:59.096Z,23.01
2022-09-17T19:36:09.167Z,23.02
2022-09-17T19:36:19.248Z,23.05
2022-09-17T19:36:29.267Z,23.07
2022-09-17T19:36:39.294Z,23.05
2022-09-17T19:36:49.318Z,23.05
2022-09-17T19:36:59.347Z,23.08
2022-09-17T19:37:09.367Z,23.08
2022-09-17T19:37:19.388Z,23.08
2022-09-17T19:37:29.404Z,23.08
2022-09-17T19:37:39.429Z,23.08
2022-09-17T19:37:49.449Z,23.08
2022-09-17T19:37:59.494Z,23.08
2022-09-17T19:38:13.227Z,23.08
2022-09-17T19:38:19.594Z,23.05
2022-09-17T19:38:29.604Z,23.08
2022-09-17T19:38:39.678Z,23.04
2022-09-17T19:38:49.727Z,23.05
2022-09-17T19:38:59.750Z,23.07
2022-09-17T19:39:09.777Z,23.07
2022-09-17T19:39:19.798Z,23.07
2022-09-17T19:39:29.819Z,23.05
2022-09-17T19:39:39.857Z,23.02
2022-09-17T19:39:49.875Z,23.02
2022-09-17T19:39:59.992Z,22.99
2022-09-17T19:40:20.087Z,22.99
2022-09-17T19:40:30.143Z,22.99
2022-09-17T19:40:40.139Z,22.99
2022-09-17T19:40:50.277Z,22.97
2022-09-17T19:41:00.300Z,22.97
2022-09-17T19:41:20.467Z,22.94
2022-09-17T19:41:30.479Z,22.97
2022-09-17T19:41:40.596Z,22.93
2022-09-17T19:41:50.639Z,22.96
2022-09-17T19:42:00.688Z,22.94
2022-09-17T19:42:20.840Z,22.93
2022-09-17T19:42:30.902Z,22.93
2022-09-17T19:42:40.919Z,22.93
2022-09-17T19:42:50.937Z,22.92
2022-09-17T19:43:00.948Z,22.92
2022-09-17T19:43:21.099Z,22.92
2022-09-17T19:43:31.119Z,22.90
2022-09-17T19:43:41.169Z,22.93
2022-09-17T19:43:51.225Z,22.92
2022-09-17T19:44:01.259Z,22.93
2022-09-17T19:44:21.289Z,22.94
2022-09-17T19:44:31.308Z,22.96
2022-09-17T19:44:41.328Z,22.97
2022-09-17T19:44:51.350Z,22.96
2022-09-17T19:45:01.380Z,22.96
2022-09-17T19:45:21.548Z,22.96
2022-09-17T19:45:31.589Z,22.96
2022-09-17T19:45:41.622Z,22.97
2022-09-17T19:45:51.649Z,22.97
2022-09-17T19:46:01.710Z,22.97
2022-09-17T19:46:21.972Z,22.94
2022-09-17T19:46:32.087Z,22.94
2022-09-17T19:46:42.207Z,22.94
2022-09-17T19:46:52.256Z,22.96
2022-09-17T19:47:02.208Z,22.96
2022-09-17T19:47:12.242Z,22.94
2022-09-17T19:47:22.286Z,22.94
2022-09-17T19:47:32.309Z,22.96
2022-09-17T19:47:42.341Z,22.94
2022-09-17T19:47:52.379Z,22.94
2022-09-17T19:48:02.409Z,22.93
2022-09-17T19:48:12.439Z,22.93
2022-09-17T19:48:25.341Z,22.93
2022-09-17T19:48:32.589Z,22.93
2022-09-17T19:48:42.611Z,22.93
2022-09-17T19:48:52.639Z,22.93
2022-09-17T19:49:02.732Z,22.93
2022-09-17T19:49:12.790Z,22.93
2022-09-17T19:49:22.817Z,22.92
2022-09-17T19:49:32.840Z,22.92
2022-09-17T19:49:42.862Z,22.93
2022-09-17T19:49:52.880Z,22.93
2022-09-17T19:50:02.900Z,22.92
2022-09-17T19:50:12.947Z,22.90
2022-09-17T19:50:22.972Z,22.93
2022-09-17T19:50:33.001Z,22.92
2022-09-17T19:50:43.011Z,22.93
2022-09-17T19:50:53.038Z,22.92
2022-09-17T19:51:03.072Z,22.92
2022-09-17T19:51:13.102Z,22.93
2022-09-17T19:51:23.141Z,22.92
2022-09-17T19:51:33.171Z,22.92
2022-09-17T19:51:43.201Z,22.92
2022-09-17T19:51:53.210Z,22.90
2022-09-17T19:52:03.229Z,22.93
2022-09-17T19:52:13.272Z,22.92
2022-09-17T19:52:23.281Z,22.90
2022-09-17T19:52:33.313Z,22.90
2022-09-17T19:52:43.351Z,22.90
2022-09-17T19:52:53.370Z,22.92
2022-09-17T19:53:03.397Z,22.90
2022-09-17T19:53:13.422Z,22.92
2022-09-17T19:53:23.664Z,22.92
2022-09-17T19:53:33.566Z,22.90
2022-09-17T19:53:43.579Z,22.89
2022-09-17T19:53:53.611Z,22.89
2022-09-17T19:54:03.637Z,22.89
2022-09-17T19:54:13.675Z,22.89
2022-09-17T19:54:23.697Z,22.89
2022-09-17T19:54:33.736Z,22.89
2022-09-17T19:54:43.759Z,22.90
2022-09-17T19:54:53.791Z,22.90
2022-09-17T19:55:03.823Z,22.90
2022-09-17T19:55:13.890Z,22.89
2022-09-17T19:55:23.912Z,22.87
2022-09-17T19:55:33.938Z,22.89
2022-09-17T19:55:43.952Z,22.89
2022-09-17T19:55:53.971Z,22.90
2022-09-17T19:56:04.029Z,22.89
2022-09-17T19:56:13.993Z,22.90
2022-09-17T19:56:24.014Z,22.90
2022-09-17T19:56:34.042Z,22.90
2022-09-17T19:56:44.062Z,22.90
2022-09-17T19:56:54.100Z,22.89
2022-09-17T19:57:04.133Z,22.90
2022-09-17T19:57:14.161Z,22.93
2022-09-17T19:57:24.189Z,22.92
2022-09-17T19:57:34.219Z,22.92
2022-09-17T19:57:44.239Z,22.92
2022-09-17T19:57:54.257Z,22.93
2022-09-17T19:58:04.362Z,22.93
2022-09-17T19:58:24.524Z,22.92
2022-09-17T19:58:34.561Z,22.92
2022-09-17T19:58:44.582Z,22.92
2022-09-17T19:58:54.607Z,22.92
2022-09-17T19:59:04.622Z,22.90
2022-09-17T19:59:14.654Z,22.90
2022-09-17T19:59:24.682Z,22.92
2022-09-17T19:59:34.713Z,22.90
2022-09-17T19:59:44.736Z,22.92
2022-09-17T19:59:54.763Z,22.92
2022-09-17T20:00:04.825Z,22.93
2022-09-17T20:00:14.870Z,22.94
2022-09-17T20:00:24.862Z,22.93
2022-09-17T20:00:34.895Z,22.94
2022-09-17T20:00:44.913Z,22.94
2022-09-17T20:00:54.932Z,22.94
2022-09-17T20:01:04.944Z,22.93
2022-09-17T20:01:15.119Z,22.96
2022-09-17T20:01:25.061Z,22.94
2022-09-17T20:01:35.210Z,22.96
2022-09-17T20:01:49.319Z,22.93
2022-09-17T20:01:55.230Z,22.93
2022-09-17T20:02:05.352Z,22.92
2022-09-17T20:02:15.489Z,22.93
2022-09-17T20:02:25.443Z,22.93
2022-09-17T20:02:35.596Z,22.94
2022-09-17T20:02:45.525Z,22.92
2022-09-17T20:02:55.653Z,22.93
2022-09-17T20:03:05.675Z,22.93
2022-09-17T20:03:15.696Z,22.93
2022-09-17T20:03:25.632Z,22.93
2022-09-17T20:03:35.670Z,22.92
2022-09-17T20:03:45.684Z,22.90
2022-09-17T20:03:55.702Z,22.92
2022-09-17T20:04:05.733Z,22.90
2022-09-17T20:04:15.773Z,22.93
2022-09-17T20:04:25.794Z,22.93
2022-09-17T20:04:35.814Z,22.94
2022-09-17T20:04:45.837Z,22.92
2022-09-17T20:04:55.843Z,22.93
2022-09-17T20:05:05.864Z,22.93
2022-09-17T20:05:15.883Z,22.93
2022-09-17T20:05:25.904Z,22.93
2022-09-17T20:05:35.944Z,22.94
2022-09-17T20:05:45.997Z,22.93
2022-09-17T20:05:56.019Z,22.94
2022-09-17T20:06:06.097Z,22.92
2022-09-17T20:06:16.125Z,22.93
2022-09-17T20:06:26.158Z,22.92
2022-09-17T20:06:36.223Z,22.94
2022-09-17T20:06:46.234Z,22.94
2022-09-17T20:06:56.256Z,22.93
2022-09-17T20:07:06.272Z,22.92
2022-09-17T20:07:16.333Z,22.93
2022-09-17T20:07:26.346Z,22.92
2022-09-17T20:07:36.384Z,22.93
2022-09-17T20:07:46.394Z,22.93
2022-09-17T20:07:56.421Z,22.93
2022-09-17T20:08:06.443Z,22.92
2022-09-17T20:08:16.475Z,22.93
2022-09-17T20:08:26.498Z,22.92
2022-09-17T20:08:41.602Z,22.94
2022-09-17T20:08:47.188Z,22.92
2022-09-17T20:08:56.694Z,22.93
2022-09-17T20:09:06.733Z,22.93
2022-09-17T20:09:16.774Z,22.93
2022-09-17T20:09:26.798Z,22.94
2022-09-17T20:09:36.823Z,22.93
2022-09-17T20:09:46.847Z,22.94
2022-09-17T20:09:56.864Z,22.94
2022-09-17T20:10:06.905Z,22.94
2022-09-17T20:10:16.927Z,22.93
2022-09-17T20:10:26.945Z,22.94
2022-09-17T20:10:36.985Z,22.94
2022-09-17T20:10:47.002Z,22.94
2022-09-17T20:10:57.016Z,22.94
2022-09-17T20:11:07.027Z,22.94
2022-09-17T20:11:17.077Z,22.96
2022-09-17T20:11:27.110Z,22.96
2022-09-17T20:11:37.152Z,22.94
2022-09-17T20:11:47.188Z,22.96
2022-09-17T20:11:57.276Z,22.97
2022-09-17T20:12:07.306Z,22.99
2022-09-17T20:12:17.327Z,22.99
2022-09-17T20:12:27.354Z,22.99
2022-09-17T20:12:37.364Z,22.99
2022-09-17T20:12:47.386Z,23.01
2022-09-17T20:12:57.425Z,22.99
2022-09-17T20:13:07.445Z,23.01
2022-09-17T20:13:17.465Z,23.01
2022-09-17T20:13:27.605Z,23.01
2022-09-17T20:13:37.625Z,23.01
2022-09-17T20:13:47.658Z,23.02
2022-09-17T20:13:57.687Z,23.01
2022-09-17T20:14:07.709Z,23.01
2022-09-17T20:14:17.726Z,23.02
2022-09-17T20:14:27.759Z,23.04
2022-09-17T20:14:37.794Z,23.02
2022-09-17T20:14:47.820Z,23.02
2022-09-17T20:14:57.846Z,23.01
2022-09-17T20:15:07.876Z,23.01